Inverness, CA

6:04 AM PDT on August 23, 2014 (GMT -0700)
Inverness, CA--First Valley | Change Station
CLOSE
Current Station
Personal Weather Station
Location: Inverness, CA
Elevation: 10 ft
Nearby Weather Stations

Elev 10 ft 38.10 °N, 122.85 °W | Updated 10 hours ago

Fog
Fog
58 °F
Feels Like 58 °F
N
8
Wind Variable Wind from WSW
Gusts 14 mph

Today
High -- | Low -- °F
--% Chance of Precip.
Yesterday
High -- | Low -- °F
Precip. -- in
6:33 AM 7:53 PM
Waning Crescent, 4% visible
Pressure 29.88 in
Visibility 10.0 miles
Clouds Overcast 600 ft
Dew Point 55 °F
Humidity 91%
Rainfall 0.00 in
Snow Depth Not available.
UV 0 out of 12
Pollen 5.90 out of 12
Air Quality Not available.
Flu Activity Not available.
METAR KSTS 231253Z AUTO 10003KT 10SM OVC006 14/13 A2990 RMK AO2 SLP119 T01440128

More Conditions Fewer Conditions

Pressure 29.88 in
Visibility 10.0 miles
Clouds Overcast 600 ft
Dew Point 55 °F
Humidity 91%
Rainfall 0.00 in
Snow Depth Not available.
UV 0 out of 12
Pollen 5.90 out of 12
Air Quality Not available.
Flu Activity Not available.
METAR KSTS 231253Z AUTO 10003KT 10SM OVC006 14/13 A2990 RMK AO2 SLP119 T01440128

More Conditions Fewer Conditions

10-Day Weather Forecast

Almanac

Astronomy

Aug. 23, 2014 Rise Set
Actual Time 6:33 AM PDT 7:53 PM PDT
Civil Twilight 6:05 AM PDT 8:21 PM PDT
Nautical Twilight 5:32 AM PDT 8:54 PM PDT
Astronomical Twilight 4:58 AM PDT 9:28 PM PDT
Moon 4:55 AM PDT 6:41 PM PDT
Length of Visible Light 14h 15m
Length of Day
13h 20m
Tomorrow will be 2m 16s shorter.
Waning Crescent, 4% of the Moon is Illuminated
Today
Waning Crescent
Aug 25
New
Sep 2
First Quarter
Sep 8
Full
Sep 15
Last Quarter

Today's Extremes

State Highs State Lows

Community

WunderPhotos

Upload Photos

1,746,447 photos uploaded!

WunderBlogs® & News

By Dr. Jeff Masters
Director of Meteorology, Weather Underground
By Kari Strenfel
Meteorologist, Weather Underground
By Christopher C. Burt
Weather Historian, Weather Underground
August 23, 2014
August 23, 2014
August 23, 2014

Nearby

Snow Depth

Station Depth Elevation
CSS Lab 1 in 6900 ft
Squaw Valley 0 in 8200 ft
Echo Peak 1 in 7800 ft
Fallen Leaf 0 in 6300 ft
Forestdale Creek 0 in 8029 ft

Earthquake Activity

City Distance Mag. Time & Date
Berkeley, California 36 miles 2.6 7:41 PM PDT
2014-08-16
Minimum magnitude displayed is 2.5.

Coastal Water Temperatures

Place Temperature
Point Reyes, CA 64.0 °F
Arena Cove, CA 57.9 °F
San Francisco, CA 64.0 °F
Richmond, CA 66.9 °F

Nearby Weather Stations